createdAt,value
2022-11-16T00:01:41.101Z,11.876254180602007
2022-11-16T00:08:11.699Z,12.290969899665551
2022-11-16T00:14:40.720Z,11.618729096989966
2022-11-16T00:21:09.254Z,11.324414715719064
2022-11-16T00:27:48.600Z,12.765886287625419
2022-11-16T00:34:17.106Z,12.103678929765886
2022-11-16T00:44:13.321Z,11.066889632107024
2022-11-16T00:50:53.007Z,11.668896321070234
2022-11-16T00:57:22.073Z,11.003344481605351
2022-11-16T01:04:26.060Z,12.167224080267559
2022-11-16T01:17:16.146Z,11.010033444816054
2022-11-16T01:23:57.566Z,11.642140468227424
2022-11-16T01:34:18.071Z,12.063545150501673
2022-11-16T01:40:46.110Z,11.97324414715719
2022-11-16T01:49:50.944Z,11.153846153846153
2022-11-16T02:00:08.566Z,12.474916387959865
2022-11-16T02:06:37.877Z,11.043478260869565
2022-11-16T02:13:51.415Z,11.454849498327759
2022-11-16T02:20:22.075Z,11.732441471571907
2022-11-16T02:27:04.096Z,10.872909698996656
2022-11-16T02:33:32.975Z,11.280936454849499
2022-11-16T02:40:01.650Z,10.96989966555184
2022-11-16T02:51:27.237Z,11.34448160535117
2022-11-16T03:01:39.213Z,12.80267558528428
2022-11-16T03:23:15.186Z,13.85953177257525
2022-11-16T03:29:43.512Z,13.334448160535118
2022-11-16T03:42:31.319Z,15.551839464882944
2022-11-16T03:49:01.377Z,16.361204013377925
2022-11-16T03:55:33.129Z,15.729096989966555
2022-11-16T04:02:01.127Z,18.989966555183948
2022-11-16T04:08:30.168Z,19.03010033444816
2022-11-16T04:18:22.103Z,19.62541806020067
2022-11-16T04:26:37.113Z,22.528428093645484
2022-11-16T04:33:06.079Z,20.702341137123746
2022-11-16T04:39:35.293Z,23.130434782608695
2022-11-16T04:46:04.242Z,22.82274247491639
2022-11-16T05:04:20.337Z,25.494983277591974
2022-11-16T05:12:12.121Z,26.180602006688964
2022-11-16T05:20:37.768Z,26.76923076923077
2022-11-16T05:27:13.458Z,27.842809364548494
2022-11-16T05:33:41.729Z,28.819397993311036
2022-11-16T05:44:45.956Z,31.204013377926422
2022-11-16T05:51:14.310Z,32.52173913043478
2022-11-16T05:57:44.731Z,32.34782608695652
2022-11-16T06:08:37.764Z,36.87290969899666
2022-11-16T06:15:25.227Z,38.331103678929765
2022-11-16T06:21:52.261Z,39.187290969899664
2022-11-16T06:32:59.004Z,39.23411371237458
2022-11-16T06:39:26.410Z,38.14046822742475
2022-11-16T06:45:53.257Z,39.11705685618729
2022-11-16T06:57:08.581Z,39.247491638795985
2022-11-16T07:08:18.176Z,38.625418060200666
2022-11-16T07:14:45.948Z,39.20066889632107
2022-11-16T07:26:13.646Z,37.27759197324415
2022-11-16T07:32:41.451Z,39.207357859531776
2022-11-16T07:39:08.300Z,40.070234113712374
2022-11-16T07:45:35.552Z,38.68227424749164
2022-11-16T07:52:34.242Z,38.43478260869565
2022-11-16T07:59:01.014Z,39.24414715719063
2022-11-16T08:05:28.088Z,39.37792642140468
2022-11-16T08:11:55.369Z,39.541806020066886
2022-11-16T08:18:22.623Z,40.13377926421405
2022-11-16T08:24:57.761Z,41.876254180602004
2022-11-16T08:31:24.906Z,39.87959866220736
2022-11-16T08:37:51.525Z,39.953177257525084
2022-11-16T08:44:18.513Z,40.76923076923077
2022-11-16T08:51:15.327Z,39.357859531772576
2022-11-16T08:57:43.485Z,38.52842809364549
2022-11-16T09:04:10.266Z,39.69230769230769
2022-11-16T09:14:23.454Z,40.04013377926422
2022-11-16T09:20:49.964Z,40.585284280936456
2022-11-16T09:27:22.021Z,40.063545150501675
2022-11-16T09:37:18.798Z,41.23076923076923
2022-11-16T09:43:46.394Z,40.45150501672241
2022-11-16T09:50:16.401Z,40.752508361204015
2022-11-16T09:56:43.017Z,40.61204013377927
2022-11-16T10:10:03.058Z,41.15384615384615
2022-11-16T10:17:07.859Z,40.56521739130435
2022-11-16T10:23:38.757Z,40.32775919732441
2022-11-16T10:30:05.317Z,40.642140468227424
2022-11-16T10:36:32.197Z,39.75585284280937
2022-11-16T10:42:58.739Z,40.23411371237458
2022-11-16T10:49:25.776Z,39.92307692307692
2022-11-16T11:02:50.753Z,40.12040133779264
2022-11-16T11:09:17.966Z,41.22742474916388
2022-11-16T11:15:45.405Z,40.43478260869565
2022-11-16T11:22:20.042Z,40.48160535117057
2022-11-16T11:42:41.187Z,40.86622073578595
2022-11-16T11:49:08.332Z,41.61538461538461
2022-11-16T11:55:36.044Z,38.103678929765884
2022-11-16T12:06:56.397Z,36.90969899665552
2022-11-16T12:13:23.460Z,35.424749163879596
2022-11-16T12:24:36.892Z,34.25083612040134
2022-11-16T12:31:03.901Z,35.759197324414714
2022-11-16T12:37:31.281Z,34.69230769230769
2022-11-16T12:43:58.260Z,33.87959866220736
2022-11-16T12:54:19.827Z,32.93311036789298
2022-11-16T13:00:47.390Z,32.458193979933114
2022-11-16T13:25:08.639Z,25.37123745819398
2022-11-16T13:31:36.679Z,25.615384615384617
2022-11-16T13:38:03.679Z,26.46153846153846
2022-11-16T13:44:30.991Z,27.759197324414714
2022-11-16T13:50:57.717Z,27.180602006688964
2022-11-16T14:02:28.515Z,28.013377926421406
2022-11-16T14:08:56.300Z,26.88294314381271
2022-11-16T14:15:24.064Z,26.77257525083612
2022-11-16T14:21:50.882Z,24.52173913043478
2022-11-16T14:42:03.439Z,21.11371237458194
2022-11-16T14:48:30.998Z,18.976588628762542
2022-11-16T14:54:58.952Z,19.010033444816052
2022-11-16T15:01:26.016Z,18.909698996655518
2022-11-16T15:07:52.952Z,18.581939799331103
2022-11-16T15:27:51.214Z,19.351170568561873
2022-11-16T15:38:04.648Z,18.581939799331103
2022-11-16T15:44:32.177Z,17.976588628762542
2022-11-16T15:56:38.943Z,17.217391304347824
2022-11-16T16:19:09.731Z,17.26086956521739
2022-11-16T16:30:56.452Z,17.36454849498328
2022-11-16T16:37:25.105Z,18.2809364548495
2022-11-16T16:43:56.681Z,55.391304347826086
2022-11-16T16:50:27.384Z,28.040133779264213
2022-11-16T16:56:56.608Z,23.618729096989966
2022-11-16T17:06:07.579Z,28.82274247491639
2022-11-16T17:12:41.444Z,16.705685618729095
2022-11-16T17:19:08.625Z,15.608695652173912
2022-11-16T17:25:37.779Z,14.391304347826088
2022-11-16T17:40:18.781Z,13.471571906354516
2022-11-16T17:46:48.570Z,14.17056856187291
2022-11-16T17:55:34.561Z,12.602006688963211
2022-11-16T18:02:03.483Z,12.354515050167224
2022-11-16T18:08:33.244Z,13.130434782608695
2022-11-16T18:17:09.430Z,13.02675585284281
2022-11-16T18:23:43.179Z,12.575250836120402
2022-11-16T18:34:35.656Z,13.535117056856187
2022-11-16T18:41:03.614Z,12.464882943143813
2022-11-16T18:47:31.216Z,11.491638795986622
2022-11-16T18:53:58.252Z,10.715719063545151
2022-11-16T19:00:25.011Z,10.762541806020067
2022-11-16T19:06:52.083Z,10.979933110367893
2022-11-16T19:13:19.331Z,10.806020066889632
2022-11-16T19:19:48.312Z,11.424749163879598
2022-11-16T19:33:49.923Z,9.397993311036789
2022-11-16T19:42:41.097Z,6.849498327759197
2022-11-16T19:52:46.742Z,5.722408026755853
2022-11-16T20:04:23.725Z,4.568561872909699
2022-11-16T20:10:51.130Z,4.2207357859531776
2022-11-16T20:17:18.252Z,3.1672240802675584
2022-11-16T20:23:50.116Z,4.250836120401337
2022-11-16T20:30:52.231Z,4.916387959866221
2022-11-16T20:37:19.791Z,3.9565217391304346
2022-11-16T20:49:39.169Z,4.729096989966555
2022-11-16T21:00:28.150Z,4.190635451505017
2022-11-16T21:06:55.106Z,5.053511705685619
2022-11-16T21:13:22.674Z,4.94314381270903
2022-11-16T21:20:05.680Z,6.759197324414716
2022-11-16T21:26:48.310Z,4.929765886287625
2022-11-16T21:33:16.897Z,5.210702341137123
2022-11-16T21:39:44.694Z,5.003344481605351
2022-11-16T21:46:13.026Z,4.913043478260869
2022-11-16T21:52:41.242Z,5.334448160535117
2022-11-16T21:59:09.031Z,4.9397993311036785
2022-11-16T22:10:49.549Z,5.197324414715719
2022-11-16T22:28:40.712Z,5.080267558528428
2022-11-16T22:38:29.717Z,5.662207357859532
2022-11-16T22:44:59.040Z,4.595317725752508
2022-11-16T22:51:27.271Z,5.464882943143813
2022-11-16T22:57:54.799Z,5.311036789297659
2022-11-16T23:04:23.082Z,4.949832775919733
2022-11-16T23:10:50.893Z,4.665551839464883
2022-11-16T23:23:25.627Z,6.177257525083612
2022-11-16T23:29:53.068Z,5.702341137123746
2022-11-16T23:36:21.297Z,6.434782608695652
2022-11-16T23:42:49.066Z,6.193979933110368
